Najran, Saudi Arabia
Current Conditions -  °F | °C
As of 10:00 AM on Friday 24 Oct 2014 (Local Time) from OENG Reporting Station
Clear Clear  
Wind Chill: 81°   Ceiling: Unl
Heat Index: 81°   Visibility: 6mi
Dew Point: 34°   Wind: 5mph
Humidity: 18%   Direction: 60°ENE
Pressure: 30.18"   Gusts: NA
Location:  17.62°N, 44.42°E
Report Text: OENG 240700Z 06004KT CAVOK 27/01 Q1022 NOSIG
Loading
Personal Weather Stations






























Interactive Weather Map
Tropical Storm Tracking
New forecast layout! Learn more

10-Day Weather Forecast

Advertisements
Track Severe Weather on mobile